Time;durP1;ratioP1;P1;durP2;ratioP2;P2;SDS_P1;SDS_P2;PMS_P1;PMS_P2;Temp;Humidity;BMP_temperature;BMP_pressure;BME280_temperature;BME280_humidity;BME280_pressure;Samples;Min_cycle;Max_cycle;Signal;HPM_P1;HPM_P2
2024/01/04 00:02:16;;;;;;;0.20;0.20;;;;;;;;;;5004159;28;20037;-89
2024/01/04 00:04:42;;;;;;;0.55;0.40;;;;;;;;;;5004573;28;20033;-87
2024/01/04 00:07:07;;;;;;;0.52;0.30;;;;;;;;;;5004061;28;20048;-87
2024/01/04 00:09:33;;;;;;;1.13;0.30;;;;;;;;;;5005484;28;20038;-88
2024/01/04 00:11:58;;;;;;;0.65;0.40;;;;;;;;;;5006586;28;20111;-87
2024/01/04 00:14:24;;;;;;;1.35;0.40;;;;;;;;;;5003169;28;20030;-87
2024/01/04 00:16:49;;;;;;;0.70;0.32;;;;;;;;;;5003937;28;20193;-88
2024/01/04 00:19:15;;;;;;;0.50;0.30;;;;;;;;;;5003764;28;20063;-88
2024/01/04 00:21:40;;;;;;;1.33;0.40;;;;;;;;;;5007989;28;20073;-87
2024/01/04 00:24:06;;;;;;;0.90;0.40;;;;;;;;;;5008208;28;20030;-86
2024/01/04 00:26:32;;;;;;;0.77;0.38;;;;;;;;;;5006247;28;20038;-86
2024/01/04 00:28:58;;;;;;;1.55;0.30;;;;;;;;;;5006999;28;20054;-87
2024/01/04 00:31:24;;;;;;;0.43;0.30;;;;;;;;;;5003459;28;20038;-89
2024/01/04 00:33:50;;;;;;;0.20;0.20;;;;;;;;;;5008604;28;20030;-88
2024/01/04 00:36:15;;;;;;;0.85;0.20;;;;;;;;;;5008252;28;20035;-89
2024/01/04 00:38:41;;;;;;;0.40;0.28;;;;;;;;;;5008358;28;20034;-89
2024/01/04 00:41:06;;;;;;;0.90;0.50;;;;;;;;;;5010597;28;20073;-86
2024/01/04 00:43:32;;;;;;;0.40;0.20;;;;;;;;;;5009142;28;20053;-87
2024/01/04 00:45:58;;;;;;;0.20;0.20;;;;;;;;;;5006956;28;20057;-88
2024/01/04 00:48:24;;;;;;;0.20;0.17;;;;;;;;;;5007874;28;20058;-88
2024/01/04 00:50:49;;;;;;;2.05;0.22;;;;;;;;;;5007560;28;20492;-88
2024/01/04 00:53:15;;;;;;;0.95;0.30;;;;;;;;;;5007638;28;20065;-88
2024/01/04 00:55:40;;;;;;;0.70;0.47;;;;;;;;;;5008259;28;20037;-89
2024/01/04 00:58:06;;;;;;;0.30;0.30;;;;;;;;;;5007120;28;20068;-87
2024/01/04 01:00:32;;;;;;;0.60;0.30;;;;;;;;;;5008063;28;20037;-88
2024/01/04 01:02:58;;;;;;;1.05;0.28;;;;;;;;;;5020507;28;20393;-88
2024/01/04 01:05:23;;;;;;;1.20;0.20;;;;;;;;;;5009405;28;20053;-88
2024/01/04 01:07:49;;;;;;;0.50;0.40;;;;;;;;;;5009590;28;20026;-89
2024/01/04 01:10:14;;;;;;;0.35;0.25;;;;;;;;;;5008934;28;20018;-88
2024/01/04 01:12:40;;;;;;;0.47;0.28;;;;;;;;;;5009328;28;20089;-88
2024/01/04 01:15:06;;;;;;;0.32;0.30;;;;;;;;;;5009197;28;20090;-86
2024/01/04 01:17:31;;;;;;;0.32;0.30;;;;;;;;;;5009811;28;20041;-88
2024/01/04 01:19:57;;;;;;;1.98;0.25;;;;;;;;;;5008242;28;20034;-88
2024/01/04 01:22:24;;;;;;;0.20;0.20;;;;;;;;;;5009344;28;20034;-88
2024/01/04 01:24:50;;;;;;;1.58;0.38;;;;;;;;;;5009315;28;20503;-88
2024/01/04 01:27:15;;;;;;;0.45;0.30;;;;;;;;;;5008993;28;20042;-87
2024/01/04 01:29:41;;;;;;;1.05;0.30;;;;;;;;;;5009204;28;20030;-89
2024/01/04 01:32:06;;;;;;;0.85;0.30;;;;;;;;;;5006032;28;20038;-88
2024/01/04 01:34:32;;;;;;;0.50;0.40;;;;;;;;;;5008607;28;20065;-88
2024/01/04 01:36:58;;;;;;;0.40;0.20;;;;;;;;;;5008245;28;20034;-88
2024/01/04 01:39:24;;;;;;;0.30;0.30;;;;;;;;;;5007539;28;20034;-88
2024/01/04 01:41:51;;;;;;;0.20;0.20;;;;;;;;;;5008071;28;20034;-87
2024/01/04 01:44:17;;;;;;;0.28;0.28;;;;;;;;;;5007284;28;20110;-87
2024/01/04 01:46:45;;;;;;;0.32;0.20;;;;;;;;;;5007413;28;20018;-87
2024/01/04 01:49:10;;;;;;;0.40;0.28;;;;;;;;;;5007070;28;20030;-88
2024/01/04 01:51:36;;;;;;;0.22;0.20;;;;;;;;;;5005072;28;20080;-87
2024/01/04 01:54:04;;;;;;;0.17;0.17;;;;;;;;;;5006162;28;20030;-86
2024/01/04 01:56:30;;;;;;;0.30;0.10;;;;;;;;;;5006883;28;20109;-88
2024/01/04 01:59:00;;;;;;;0.10;0.10;;;;;;;;;;5008051;28;20042;-89
2024/01/04 02:01:26;;;;;;;0.20;0.17;;;;;;;;;;5030802;28;20049;-88
2024/01/04 02:03:52;;;;;;;0.10;0.10;;;;;;;;;;5008181;28;20034;-87
2024/01/04 02:06:17;;;;;;;0.70;0.20;;;;;;;;;;5004204;28;20037;-88
2024/01/04 02:08:46;;;;;;;0.55;0.20;;;;;;;;;;5004334;28;20085;-88
2024/01/04 02:11:11;;;;;;;0.47;0.20;;;;;;;;;;5004023;28;20030;-87
2024/01/04 02:13:37;;;;;;;0.65;0.20;;;;;;;;;;5003342;28;20053;-86
2024/01/04 02:16:03;;;;;;;0.30;0.20;;;;;;;;;;5003991;28;20153;-87
2024/01/04 02:18:28;;;;;;;1.55;0.28;;;;;;;;;;5003550;28;20412;-86
2024/01/04 02:20:54;;;;;;;0.32;0.10;;;;;;;;;;5005711;28;20030;-86
2024/01/04 02:23:19;;;;;;;1.10;0.20;;;;;;;;;;5004588;28;20081;-87
2024/01/04 02:25:45;;;;;;;1.75;0.20;;;;;;;;;;5007339;28;20560;-88
2024/01/04 02:28:11;;;;;;;1.45;0.25;;;;;;;;;;5004953;28;20469;-88
2024/01/04 02:30:36;;;;;;;0.13;0.10;;;;;;;;;;5004523;28;20034;-86
2024/01/04 02:33:02;;;;;;;0.93;0.20;;;;;;;;;;5003435;28;20022;-86
2024/01/04 02:35:27;;;;;;;0.70;0.28;;;;;;;;;;5003896;28;20104;-86
2024/01/04 02:37:53;;;;;;;2.28;0.30;;;;;;;;;;5003085;28;20038;-87
2024/01/04 02:40:19;;;;;;;0.52;0.10;;;;;;;;;;5002093;28;20130;-87
2024/01/04 02:42:44;;;;;;;0.55;0.20;;;;;;;;;;5002065;28;20476;-87
2024/01/04 02:45:10;;;;;;;1.25;0.25;;;;;;;;;;5006391;28;20038;-88
2024/01/04 02:47:36;;;;;;;1.10;0.10;;;;;;;;;;5004160;28;20038;-88
2024/01/04 02:50:02;;;;;;;0.95;0.10;;;;;;;;;;5005756;28;20094;-86
2024/01/04 02:52:28;;;;;;;1.40;0.20;;;;;;;;;;5003846;28;20070;-87
2024/01/04 02:54:54;;;;;;;1.48;0.45;;;;;;;;;;5003129;28;20030;-86
2024/01/04 02:57:19;;;;;;;1.88;0.30;;;;;;;;;;5003019;28;20053;-87
2024/01/04 02:59:45;;;;;;;0.03;0.00;;;;;;;;;;5003479;28;20030;-87
2024/01/04 03:02:11;;;;;;;0.10;0.10;;;;;;;;;;5003107;28;20037;-87
2024/01/04 03:04:40;;;;;;;1.40;0.20;;;;;;;;;;5007044;28;20400;-89
2024/01/04 03:07:06;;;;;;;1.73;0.20;;;;;;;;;;5001616;28;20030;-87
2024/01/04 03:09:32;;;;;;;0.28;0.10;;;;;;;;;;5003525;28;20058;-86
2024/01/04 03:11:57;;;;;;;0.25;0.17;;;;;;;;;;5003321;28;20033;-87
2024/01/04 03:14:23;;;;;;;0.70;0.10;;;;;;;;;;5005034;28;20074;-87
2024/01/04 03:16:48;;;;;;;0.93;0.15;;;;;;;;;;5005181;28;20044;-86
2024/01/04 03:19:14;;;;;;;0.45;0.15;;;;;;;;;;5004985;28;20029;-89
2024/01/04 03:21:39;;;;;;;1.73;0.30;;;;;;;;;;5004698;28;20021;-87
2024/01/04 03:24:05;;;;;;;1.23;0.32;;;;;;;;;;5004413;28;20041;-86
2024/01/04 03:26:30;;;;;;;1.80;0.30;;;;;;;;;;5004857;28;20042;-87
2024/01/04 03:28:56;;;;;;;0.88;0.20;;;;;;;;;;5004538;28;20037;-87
2024/01/04 03:31:21;;;;;;;0.63;0.20;;;;;;;;;;5003954;28;20030;-87
2024/01/04 03:33:49;;;;;;;2.28;0.28;;;;;;;;;;5002782;28;20391;-87
2024/01/04 03:36:15;;;;;;;1.10;0.20;;;;;;;;;;5004573;28;20060;-88
2024/01/04 03:38:40;;;;;;;0.30;0.17;;;;;;;;;;5002613;28;20049;-89
2024/01/04 03:41:07;;;;;;;0.38;0.17;;;;;;;;;;5003705;28;20037;-88
2024/01/04 03:43:33;;;;;;;0.35;0.15;;;;;;;;;;5003267;28;20046;-86
2024/01/04 03:45:59;;;;;;;0.88;0.20;;;;;;;;;;5003802;28;20034;-87
2024/01/04 03:48:24;;;;;;;0.28;0.20;;;;;;;;;;5005436;28;20048;-87
2024/01/04 03:50:50;;;;;;;1.08;0.20;;;;;;;;;;5004248;28;20037;-86
2024/01/04 03:53:15;;;;;;;0.88;0.30;;;;;;;;;;5003197;28;20033;-88
2024/01/04 03:55:41;;;;;;;0.47;0.20;;;;;;;;;;5002160;28;20038;-87
2024/01/04 03:58:06;;;;;;;0.60;0.20;;;;;;;;;;5003179;28;20041;-88
2024/01/04 04:00:32;;;;;;;0.40;0.20;;;;;;;;;;5002950;28;20053;-86
2024/01/04 04:02:58;;;;;;;0.10;0.10;;;;;;;;;;5002757;28;20035;-88
2024/01/04 04:05:23;;;;;;;0.65;0.20;;;;;;;;;;5004124;28;20035;-88
2024/01/04 04:07:50;;;;;;;0.40;0.25;;;;;;;;;;4980350;28;20059;-88
2024/01/04 04:10:16;;;;;;;0.68;0.20;;;;;;;;;;4982919;28;20039;-87
2024/01/04 04:12:41;;;;;;;0.63;0.15;;;;;;;;;;4985281;28;20038;-87
2024/01/04 04:15:08;;;;;;;0.50;0.20;;;;;;;;;;4981483;28;20113;-88
2024/01/04 04:17:34;;;;;;;1.17;0.20;;;;;;;;;;4983676;28;20424;-89
2024/01/04 04:20:00;;;;;;;0.22;0.10;;;;;;;;;;4982940;28;20115;-88
2024/01/04 04:22:25;;;;;;;0.57;0.20;;;;;;;;;;4982966;28;20043;-86
2024/01/04 04:24:51;;;;;;;1.02;0.30;;;;;;;;;;4983978;28;20027;-88
2024/01/04 04:27:16;;;;;;;1.67;0.25;;;;;;;;;;4998718;28;20070;-88
2024/01/04 04:29:42;;;;;;;0.52;0.20;;;;;;;;;;4983342;28;20103;-87
2024/01/04 04:32:08;;;;;;;1.75;0.20;;;;;;;;;;4983723;28;20540;-88
2024/01/04 04:34:34;;;;;;;0.10;0.10;;;;;;;;;;4979542;28;20035;-87
2024/01/04 04:37:00;;;;;;;0.80;0.20;;;;;;;;;;4983946;28;20047;-86
2024/01/04 04:39:25;;;;;;;0.15;0.15;;;;;;;;;;4980870;28;20493;-87
2024/01/04 04:41:50;;;;;;;0.50;0.10;;;;;;;;;;4981486;28;20038;-87
2024/01/04 04:44:16;;;;;;;0.88;0.30;;;;;;;;;;4980166;28;20103;-86
2024/01/04 04:46:41;;;;;;;0.10;0.10;;;;;;;;;;4982561;28;20027;-86
2024/01/04 04:49:07;;;;;;;0.00;0.00;;;;;;;;;;4981627;28;20018;-88
2024/01/04 04:51:33;;;;;;;0.43;0.20;;;;;;;;;;4966339;28;20129;-87
2024/01/04 04:53:58;;;;;;;0.10;0.10;;;;;;;;;;4980197;28;20090;-85
2024/01/04 04:56:24;;;;;;;0.82;0.20;;;;;;;;;;4983039;28;20051;-84
2024/01/04 04:58:50;;;;;;;1.45;0.28;;;;;;;;;;4984293;28;20030;-86
2024/01/04 05:01:15;;;;;;;0.38;0.10;;;;;;;;;;4979723;28;20046;-87
2024/01/04 05:03:41;;;;;;;0.35;0.08;;;;;;;;;;4980738;28;20042;-85
2024/01/04 05:06:08;;;;;;;0.05;0.05;;;;;;;;;;4983513;28;20030;-85
2024/01/04 05:08:33;;;;;;;0.43;0.10;;;;;;;;;;4988372;28;20039;-86
2024/01/04 05:10:59;;;;;;;0.60;0.10;;;;;;;;;;4984594;28;20045;-87
2024/01/04 05:13:25;;;;;;;0.08;0.00;;;;;;;;;;5001081;28;20038;-85
2024/01/04 05:15:50;;;;;;;0.38;0.10;;;;;;;;;;4980962;28;20027;-87
2024/01/04 05:18:16;;;;;;;0.32;0.10;;;;;;;;;;4969142;28;20049;-86
2024/01/04 05:20:41;;;;;;;0.00;0.00;;;;;;;;;;4983657;28;20037;-86
2024/01/04 05:23:07;;;;;;;0.35;0.10;;;;;;;;;;4986599;28;20061;-87
2024/01/04 05:25:35;;;;;;;0.30;0.10;;;;;;;;;;4984164;28;20110;-87
2024/01/04 05:28:01;;;;;;;0.38;0.10;;;;;;;;;;4987184;28;20027;-87
2024/01/04 05:30:26;;;;;;;0.52;0.20;;;;;;;;;;4983921;28;20035;-87
2024/01/04 05:32:52;;;;;;;0.10;0.10;;;;;;;;;;5001870;28;20043;-86
2024/01/04 05:35:18;;;;;;;0.90;0.30;;;;;;;;;;5002532;28;20023;-86
2024/01/04 05:37:43;;;;;;;0.10;0.10;;;;;;;;;;4987285;28;20043;-86
2024/01/04 05:40:09;;;;;;;0.60;0.20;;;;;;;;;;4985375;28;20023;-88
2024/01/04 05:42:35;;;;;;;1.23;0.45;;;;;;;;;;4988680;28;20035;-87
2024/01/04 05:45:00;;;;;;;0.35;0.20;;;;;;;;;;4987988;28;20038;-87
2024/01/04 05:47:26;;;;;;;0.52;0.17;;;;;;;;;;4987357;28;20039;-88
2024/01/04 05:49:52;;;;;;;0.10;0.10;;;;;;;;;;4989540;28;20039;-86
2024/01/04 05:52:17;;;;;;;1.38;0.20;;;;;;;;;;5001232;28;20054;-87
2024/01/04 05:54:42;;;;;;;0.25;0.20;;;;;;;;;;4991579;28;20026;-85
2024/01/04 05:57:08;;;;;;;0.75;0.15;;;;;;;;;;4989541;28;20050;-86
2024/01/04 05:59:33;;;;;;;0.73;0.20;;;;;;;;;;4980922;28;20047;-87
2024/01/04 06:02:00;;;;;;;0.73;0.30;;;;;;;;;;4984743;28;20070;-87
2024/01/04 06:04:25;;;;;;;0.90;0.10;;;;;;;;;;4983188;28;20043;-88
2024/01/04 06:06:51;;;;;;;0.68;0.20;;;;;;;;;;4986108;28;20027;-85
2024/01/04 06:09:20;;;;;;;0.13;0.13;;;;;;;;;;5000109;28;20039;-85
2024/01/04 06:11:46;;;;;;;0.80;0.30;;;;;;;;;;4984996;28;20038;-87
2024/01/04 06:14:12;;;;;;;0.52;0.13;;;;;;;;;;4984490;28;20031;-85
2024/01/04 06:16:37;;;;;;;0.40;0.10;;;;;;;;;;5001511;28;20042;-84
2024/01/04 06:19:03;;;;;;;0.45;0.25;;;;;;;;;;4982469;28;20046;-86
2024/01/04 06:21:29;;;;;;;0.17;0.10;;;;;;;;;;4980794;28;20523;-86
2024/01/04 06:24:24;;;;;;;0.30;0.10;;;;;;;;;;5015438;23;20040;-85
2024/01/04 06:32:55;;;;;;;2.60;0.30;;;;;;;;;;5050405;28;20071;-84
2024/01/04 06:35:24;;;;;;;0.40;0.15;;;;;;;;;;5030550;28;20029;-85
2024/01/04 06:37:49;;;;;;;0.50;0.20;;;;;;;;;;5054544;28;20030;-85
2024/01/04 06:40:31;;;;;;;0.32;0.08;;;;;;;;;;5052411;28;20044;-85
2024/01/04 06:43:38;;;;;;;0.17;0.00;;;;;;;;;;5036974;28;20048;-86
2024/01/04 06:46:14;;;;;;;0.15;0.00;;;;;;;;;;5054069;28;20044;-85
2024/01/04 06:48:42;;;;;;;0.55;0.10;;;;;;;;;;5038278;28;20070;-85
2024/01/04 06:51:28;;;;;;;;;;;;;;;;;;;;;
2024/01/04 06:54:19;;;;;;;0.10;0.10;;;;;;;;;;5054609;28;20082;-87
2024/01/04 06:56:49;;;;;;;0.52;0.20;;;;;;;;;;5053873;28;20021;-86
2024/01/04 06:59:20;;;;;;;0.50;0.10;;;;;;;;;;5053809;28;20037;-87
2024/01/04 07:02:12;;;;;;;0.10;0.10;;;;;;;;;;5052490;28;20090;-87
2024/01/04 07:04:40;;;;;;;2.72;0.10;;;;;;;;;;5053172;28;20021;-86
2024/01/04 07:07:08;;;;;;;0.25;0.10;;;;;;;;;;5034564;28;20114;-86
2024/01/04 07:09:37;;;;;;;0.47;0.15;;;;;;;;;;5049614;28;20101;-89
2024/01/04 07:12:07;;;;;;;0.05;0.00;;;;;;;;;;5059763;28;20560;-84
2024/01/04 07:14:37;;;;;;;0.30;0.10;;;;;;;;;;5060058;28;20040;-83
2024/01/04 07:17:04;;;;;;;0.43;0.10;;;;;;;;;;5039806;28;20107;-82
2024/01/04 07:19:29;;;;;;;0.20;0.10;;;;;;;;;;5035993;28;20056;-86
2024/01/04 07:21:55;;;;;;;0.10;0.10;;;;;;;;;;5047985;28;20048;-84
2024/01/04 07:24:21;;;;;;;0.35;0.10;;;;;;;;;;5039021;28;20021;-83
2024/01/04 07:26:47;;;;;;;0.17;0.17;;;;;;;;;;5055641;28;20542;-83
2024/01/04 07:29:13;;;;;;;1.25;0.20;;;;;;;;;;5047801;28;20025;-85
2024/01/04 07:31:39;;;;;;;0.20;0.10;;;;;;;;;;5050890;28;20033;-84
2024/01/04 07:34:06;;;;;;;0.90;0.30;;;;;;;;;;5036972;28;20041;-84
2024/01/04 07:36:34;;;;;;;0.10;0.10;;;;;;;;;;5056420;28;20044;-83
2024/01/04 07:38:59;;;;;;;0.52;0.20;;;;;;;;;;5037771;28;20089;-84
2024/01/04 07:41:25;;;;;;;0.75;0.20;;;;;;;;;;5053394;28;20060;-84
2024/01/04 07:43:50;;;;;;;0.08;0.08;;;;;;;;;;5051502;28;20033;-86
2024/01/04 07:46:16;;;;;;;1.20;0.20;;;;;;;;;;5050832;28;20351;-83
2024/01/04 07:48:41;;;;;;;0.22;0.20;;;;;;;;;;5042898;28;20098;-84
2024/01/04 07:51:07;;;;;;;0.10;0.10;;;;;;;;;;5050696;28;20029;-82
2024/01/04 07:53:32;;;;;;;0.55;0.13;;;;;;;;;;5053746;28;20120;-82
2024/01/04 07:55:58;;;;;;;0.70;0.20;;;;;;;;;;5050737;28;20037;-83
2024/01/04 07:58:23;;;;;;;0.20;0.10;;;;;;;;;;5050263;28;20086;-84
2024/01/04 08:00:49;;;;;;;0.65;0.20;;;;;;;;;;5050200;28;20070;-84
2024/01/04 08:03:14;;;;;;;0.30;0.30;;;;;;;;;;5031076;28;20025;-85
2024/01/04 08:05:40;;;;;;;0.57;0.10;;;;;;;;;;5045099;28;20497;-84
2024/01/04 08:08:05;;;;;;;2.13;0.30;;;;;;;;;;5050612;28;20407;-87
2024/01/04 08:10:31;;;;;;;1.15;0.20;;;;;;;;;;5032167;28;20049;-87
2024/01/04 08:12:56;;;;;;;0.75;0.20;;;;;;;;;;5047065;28;20514;-83
2024/01/04 08:15:22;;;;;;;0.63;0.20;;;;;;;;;;5050682;28;20025;-85
2024/01/04 08:17:48;;;;;;;0.22;0.20;;;;;;;;;;5058316;28;20033;-84
2024/01/04 08:20:14;;;;;;;0.10;0.10;;;;;;;;;;5040156;28;20052;-84
2024/01/04 08:22:40;;;;;;;2.03;0.30;;;;;;;;;;5054729;28;20033;-85
2024/01/04 08:25:08;;;;;;;0.32;0.20;;;;;;;;;;5052313;28;20025;-85
2024/01/04 08:27:33;;;;;;;1.10;0.20;;;;;;;;;;5035127;28;20048;-83
2024/01/04 08:29:59;;;;;;;0.22;0.17;;;;;;;;;;5052322;28;20037;-84
2024/01/04 08:32:24;;;;;;;0.70;0.30;;;;;;;;;;5050521;28;20029;-84
2024/01/04 08:34:49;;;;;;;1.80;0.30;;;;;;;;;;5053031;28;20445;-84
2024/01/04 08:37:18;;;;;;;0.80;0.30;;;;;;;;;;5053021;28;20093;-84
2024/01/04 08:39:43;;;;;;;0.35;0.20;;;;;;;;;;5051103;28;20029;-84
2024/01/04 08:42:09;;;;;;;1.10;0.30;;;;;;;;;;5055024;28;20037;-85
2024/01/04 08:44:35;;;;;;;2.35;0.30;;;;;;;;;;5052984;28;20052;-84
2024/01/04 08:47:00;;;;;;;0.70;0.20;;;;;;;;;;5043717;28;20037;-84
2024/01/04 08:49:26;;;;;;;1.10;0.30;;;;;;;;;;5055422;28;20036;-84
2024/01/04 08:51:51;;;;;;;0.82;0.40;;;;;;;;;;5053466;28;20039;-84
2024/01/04 08:54:16;;;;;;;2.35;0.30;;;;;;;;;;5052158;28;20030;-85
2024/01/04 08:56:42;;;;;;;2.17;0.40;;;;;;;;;;5055863;28;20037;-86
2024/01/04 08:59:08;;;;;;;2.15;0.30;;;;;;;;;;5040358;28;20044;-85
2024/01/04 09:01:33;;;;;;;0.60;0.30;;;;;;;;;;5052831;28;20032;-83
2024/01/04 09:03:59;;;;;;;1.45;0.47;;;;;;;;;;5045254;28;20483;-84
2024/01/04 09:06:24;;;;;;;1.00;0.25;;;;;;;;;;5054115;28;20047;-85
2024/01/04 09:08:50;;;;;;;0.52;0.30;;;;;;;;;;5044020;28;20034;-86
2024/01/04 09:11:19;;;;;;;1.15;0.35;;;;;;;;;;5037030;28;20033;-84
2024/01/04 09:13:45;;;;;;;0.77;0.20;;;;;;;;;;5054869;28;20045;-84
2024/01/04 09:16:11;;;;;;;0.47;0.13;;;;;;;;;;5038770;28;20044;-86
2024/01/04 09:18:37;;;;;;;1.55;0.20;;;;;;;;;;5043963;28;20100;-86
2024/01/04 09:21:02;;;;;;;0.50;0.20;;;;;;;;;;5044201;28;20048;-83
2024/01/04 09:23:31;;;;;;;1.27;0.40;;;;;;;;;;5047397;28;20029;-83
2024/01/04 09:25:57;;;;;;;3.63;0.20;;;;;;;;;;5037722;28;20097;-83
2024/01/04 09:28:24;;;;;;;1.70;0.20;;;;;;;;;;5058746;28;20552;-85
2024/01/04 09:30:50;;;;;;;1.65;0.30;;;;;;;;;;5053157;28;20112;-85
2024/01/04 09:33:16;;;;;;;1.40;0.28;;;;;;;;;;5054135;28;20533;-83
2024/01/04 09:35:41;;;;;;;0.40;0.30;;;;;;;;;;5058784;28;20069;-86
2024/01/04 09:38:07;;;;;;;1.05;0.20;;;;;;;;;;5059074;28;20077;-83
2024/01/04 09:40:33;;;;;;;1.80;0.32;;;;;;;;;;5055169;28;20057;-84
2024/01/04 09:43:00;;;;;;;1.45;0.30;;;;;;;;;;5053714;28;20499;-85
2024/01/04 09:45:28;;;;;;;0.70;0.30;;;;;;;;;;5056291;28;20033;-85
2024/01/04 09:47:56;;;;;;;0.60;0.32;;;;;;;;;;5059503;28;20044;-84
2024/01/04 09:50:22;;;;;;;1.63;0.73;;;;;;;;;;5055972;28;20029;-85
2024/01/04 09:52:51;;;;;;;1.58;0.45;;;;;;;;;;5055158;28;20051;-84
2024/01/04 09:55:20;;;;;;;1.70;0.57;;;;;;;;;;5049914;28;20499;-84
2024/01/04 09:57:46;;;;;;;1.65;0.85;;;;;;;;;;5045898;28;20040;-84
2024/01/04 10:00:12;;;;;;;1.40;0.60;;;;;;;;;;5034774;28;20029;-83
2024/01/04 10:02:44;;;;;;;2.30;0.60;;;;;;;;;;5053537;28;20104;-83
2024/01/04 10:05:18;;;;;;;1.83;0.80;;;;;;;;;;5033036;28;20041;-84
2024/01/04 10:07:52;;;;;;;1.55;0.40;;;;;;;;;;5050628;28;20064;-83
2024/01/04 10:10:19;;;;;;;0.88;0.40;;;;;;;;;;5049300;28;20394;-83
2024/01/04 10:12:47;;;;;;;1.02;0.20;;;;;;;;;;5052004;28;20116;-82
2024/01/04 10:15:15;;;;;;;2.08;0.40;;;;;;;;;;5052411;28;20482;-83
2024/01/04 10:17:42;;;;;;;0.80;0.30;;;;;;;;;;5051644;28;20033;-83
2024/01/04 10:20:08;;;;;;;1.83;0.32;;;;;;;;;;5050772;28;20084;-85
2024/01/04 10:22:34;;;;;;;1.77;0.55;;;;;;;;;;5049595;28;20758;-85
2024/01/04 10:25:06;;;;;;;1.55;0.40;;;;;;;;;;5051778;28;20037;-84
2024/01/04 10:27:32;;;;;;;4.13;1.63;;;;;;;;;;5051697;28;20040;-84
2024/01/04 10:30:03;;;;;;;2.10;0.80;;;;;;;;;;5052322;28;20037;-83
2024/01/04 10:32:29;;;;;;;1.85;0.60;;;;;;;;;;5046312;28;20032;-85
2024/01/04 10:35:03;;;;;;;1.30;0.47;;;;;;;;;;5051798;28;20446;-83
2024/01/04 10:37:28;;;;;;;2.08;0.65;;;;;;;;;;5038629;28;20032;-85
2024/01/04 10:39:59;;;;;;;2.45;0.50;;;;;;;;;;5037129;28;20494;-83
2024/01/04 10:42:24;;;;;;;3.47;0.40;;;;;;;;;;5049901;28;20030;-83
2024/01/04 10:44:54;;;;;;;0.80;0.30;;;;;;;;;;5034810;28;20021;-85
2024/01/04 10:47:20;;;;;;;1.08;0.40;;;;;;;;;;5047892;28;20497;-85
2024/01/04 10:49:49;;;;;;;3.17;0.60;;;;;;;;;;5035436;28;20159;-83
2024/01/04 10:52:16;;;;;;;2.97;0.57;;;;;;;;;;5047383;28;20052;-85
2024/01/04 10:54:43;;;;;;;2.78;0.50;;;;;;;;;;5051581;28;20036;-84
2024/01/04 10:57:09;;;;;;;1.83;0.40;;;;;;;;;;5050702;28;20025;-82
2024/01/04 10:59:36;;;;;;;2.38;0.40;;;;;;;;;;5047372;28;20039;-84
2024/01/04 11:02:02;;;;;;;1.00;0.50;;;;;;;;;;5036012;28;20402;-84
2024/01/04 11:04:29;;;;;;;1.67;0.47;;;;;;;;;;5043713;28;20037;-85
2024/01/04 11:06:55;;;;;;;1.63;0.50;;;;;;;;;;5050866;28;20032;-85
2024/01/04 11:09:22;;;;;;;1.58;0.50;;;;;;;;;;5051602;28;20048;-83
2024/01/04 11:11:53;;;;;;;1.90;0.70;;;;;;;;;;5046842;28;20040;-84
2024/01/04 11:14:23;;;;;;;0.85;0.50;;;;;;;;;;5042105;28;20090;-84
2024/01/04 11:17:10;;;;;;;2.53;0.60;;;;;;;;;;5037348;28;20475;-84
2024/01/04 11:19:43;;;;;;;3.30;0.68;;;;;;;;;;5035332;28;20049;-84
2024/01/04 11:22:45;;;;;;;3.15;1.02;;;;;;;;;;5048796;28;20029;-84
2024/01/04 11:25:44;;;;;;;1.85;0.50;;;;;;;;;;5050961;28;20028;-84
2024/01/04 11:28:11;;;;;;;3.72;0.63;;;;;;;;;;5051115;28;20037;-86
2024/01/04 11:30:36;;;;;;;1.17;0.30;;;;;;;;;;5044622;28;20074;-86
2024/01/04 11:33:05;;;;;;;1.27;0.50;;;;;;;;;;5050876;28;20033;-85
2024/01/04 11:35:38;;;;;;;1.95;0.40;;;;;;;;;;5045125;28;20372;-85
2024/01/04 11:38:07;;;;;;;2.25;0.68;;;;;;;;;;5059490;28;20025;-85
2024/01/04 11:40:37;;;;;;;1.25;0.30;;;;;;;;;;5034028;28;20045;-84
2024/01/04 11:43:16;;;;;;;1.40;0.50;;;;;;;;;;5055121;28;20031;-85
2024/01/04 11:45:46;;;;;;;2.00;0.70;;;;;;;;;;5053052;28;20029;-85
2024/01/04 11:48:12;;;;;;;3.08;0.52;;;;;;;;;;5058489;28;20048;-85
2024/01/04 11:50:48;;;;;;;1.02;0.40;;;;;;;;;;5055248;28;20498;-85
2024/01/04 11:53:15;;;;;;;2.30;0.60;;;;;;;;;;5033713;28;20037;-84
2024/01/04 11:55:41;;;;;;;2.45;0.43;;;;;;;;;;5058486;28;20028;-85
2024/01/04 11:58:09;;;;;;;3.22;0.60;;;;;;;;;;5057359;28;20037;-85
2024/01/04 12:00:37;;;;;;;1.77;0.40;;;;;;;;;;5056129;28;20041;-85
2024/01/04 12:03:12;;;;;;;1.00;0.40;;;;;;;;;;5056696;28;20421;-85
2024/01/04 12:05:41;;;;;;;0.82;0.30;;;;;;;;;;5040852;28;20044;-85
2024/01/04 12:08:07;;;;;;;1.27;0.28;;;;;;;;;;5039426;28;20033;-84
2024/01/04 12:10:33;;;;;;;1.23;0.47;;;;;;;;;;5037514;28;20033;-83
2024/01/04 12:12:59;;;;;;;1.20;0.40;;;;;;;;;;5054194;28;20343;-84
2024/01/04 12:15:24;;;;;;;0.85;0.30;;;;;;;;;;5058997;28;20033;-88
2024/01/04 12:17:50;;;;;;;1.33;0.30;;;;;;;;;;5042391;28;20410;-85
2024/01/04 12:20:15;;;;;;;1.95;0.47;;;;;;;;;;5054893;28;20040;-85
2024/01/04 12:22:42;;;;;;;1.75;0.40;;;;;;;;;;5052958;28;20033;-86
2024/01/04 12:25:09;;;;;;;1.38;0.30;;;;;;;;;;5053308;28;20035;-86
2024/01/04 12:27:36;;;;;;;1.27;0.40;;;;;;;;;;5031396;28;20040;-87
2024/01/04 12:30:05;;;;;;;0.73;0.20;;;;;;;;;;5049471;28;20026;-86
2024/01/04 12:32:32;;;;;;;1.08;0.35;;;;;;;;;;5049923;28;20075;-85
2024/01/04 12:34:58;;;;;;;1.35;0.20;;;;;;;;;;5047856;28;20041;-86
2024/01/04 12:37:23;;;;;;;0.70;0.20;;;;;;;;;;5030459;28;20037;-87
2024/01/04 12:39:49;;;;;;;0.82;0.30;;;;;;;;;;5050812;28;20032;-86
2024/01/04 12:42:15;;;;;;;1.27;0.40;;;;;;;;;;5038490;28;20513;-87
2024/01/04 12:44:40;;;;;;;1.33;0.38;;;;;;;;;;5046075;28;20028;-87
2024/01/04 12:47:09;;;;;;;4.45;0.40;;;;;;;;;;5049615;28;20090;-86
2024/01/04 12:49:36;;;;;;;1.13;0.30;;;;;;;;;;5047018;28;20036;-88
2024/01/04 12:52:11;;;;;;;0.75;0.35;;;;;;;;;;5048871;28;20503;-86
2024/01/04 12:54:36;;;;;;;0.90;0.32;;;;;;;;;;5050401;28;20055;-87
2024/01/04 12:57:02;;;;;;;2.45;0.40;;;;;;;;;;5054397;28;20037;-85
2024/01/04 12:59:27;;;;;;;1.27;0.22;;;;;;;;;;5048961;28;20029;-86
2024/01/04 13:01:52;;;;;;;1.73;0.47;;;;;;;;;;5046500;28;20033;-86
2024/01/04 13:04:18;;;;;;;2.45;0.50;;;;;;;;;;5048318;28;20037;-86
2024/01/04 13:06:44;;;;;;;1.08;0.22;;;;;;;;;;5044289;28;20033;-87
2024/01/04 13:09:14;;;;;;;1.65;0.40;;;;;;;;;;5034830;28;20384;-85
2024/01/04 13:11:40;;;;;;;1.05;0.20;;;;;;;;;;5049020;28;20033;-86
2024/01/04 13:14:05;;;;;;;2.22;0.43;;;;;;;;;;5045849;28;20112;-86
2024/01/04 13:16:31;;;;;;;0.88;0.30;;;;;;;;;;5047327;28;20076;-86
2024/01/04 13:18:56;;;;;;;0.85;0.25;;;;;;;;;;5050460;28;20041;-85
2024/01/04 13:21:22;;;;;;;0.75;0.32;;;;;;;;;;5044932;28;20041;-86
2024/01/04 13:23:47;;;;;;;0.82;0.20;;;;;;;;;;5030475;28;20056;-87
2024/01/04 13:26:13;;;;;;;1.08;0.20;;;;;;;;;;5030974;28;20037;-87
2024/01/04 13:28:38;;;;;;;0.57;0.17;;;;;;;;;;5049614;28;20040;-85
2024/01/04 13:31:06;;;;;;;1.17;0.40;;;;;;;;;;5036536;28;20036;-84
2024/01/04 13:33:32;;;;;;;1.40;0.40;;;;;;;;;;5047552;28;20041;-87
2024/01/04 13:35:59;;;;;;;0.70;0.25;;;;;;;;;;5049072;28;20033;-86
2024/01/04 13:38:24;;;;;;;0.60;0.20;;;;;;;;;;5051629;28;20033;-84
2024/01/04 13:40:50;;;;;;;1.50;0.28;;;;;;;;;;5052696;28;20036;-87
2024/01/04 13:43:15;;;;;;;1.60;0.40;;;;;;;;;;5049867;28;20040;-86
2024/01/04 13:45:41;;;;;;;1.50;0.20;;;;;;;;;;5051563;28;20032;-87
2024/01/04 13:48:07;;;;;;;0.75;0.30;;;;;;;;;;5052455;28;20036;-85
2024/01/04 13:50:32;;;;;;;0.82;0.30;;;;;;;;;;5044223;28;20041;-86
2024/01/04 13:52:58;;;;;;;1.65;0.30;;;;;;;;;;5053834;28;20101;-86
2024/01/04 13:55:23;;;;;;;0.93;0.40;;;;;;;;;;5054045;28;20037;-86
2024/01/04 13:57:49;;;;;;;1.13;0.20;;;;;;;;;;5056327;28;20035;-86
2024/01/04 14:00:14;;;;;;;1.50;0.50;;;;;;;;;;5053826;28;20497;-86
2024/01/04 14:02:40;;;;;;;1.25;0.60;;;;;;;;;;5045844;28;20028;-86
2024/01/04 14:05:08;;;;;;;1.10;0.40;;;;;;;;;;5051769;28;20021;-85
2024/01/04 14:07:34;;;;;;;1.65;0.40;;;;;;;;;;5051359;28;20083;-85
2024/01/04 14:10:00;;;;;;;0.88;0.30;;;;;;;;;;5032072;28;20029;-86
2024/01/04 14:12:25;;;;;;;1.80;0.40;;;;;;;;;;5036239;28;20041;-84
2024/01/04 14:14:51;;;;;;;0.63;0.30;;;;;;;;;;5040882;28;20060;-84
2024/01/04 14:17:16;;;;;;;0.50;0.30;;;;;;;;;;5046183;28;20108;-84
2024/01/04 14:19:42;;;;;;;2.22;0.50;;;;;;;;;;5046841;28;20052;-85
2024/01/04 14:22:08;;;;;;;0.50;0.30;;;;;;;;;;5048773;28;20039;-84
2024/01/04 14:24:33;;;;;;;0.85;0.20;;;;;;;;;;5047345;28;20087;-84
2024/01/04 14:26:59;;;;;;;1.10;0.40;;;;;;;;;;5048778;28;20692;-85
2024/01/04 14:29:24;;;;;;;0.85;0.30;;;;;;;;;;5050428;28;20042;-86
2024/01/04 14:31:50;;;;;;;1.45;0.40;;;;;;;;;;5015450;28;20029;-86
2024/01/04 14:34:16;;;;;;;0.70;0.30;;;;;;;;;;5033413;28;20039;-86
2024/01/04 14:36:42;;;;;;;0.75;0.20;;;;;;;;;;5035301;28;20029;-86
2024/01/04 14:39:09;;;;;;;1.02;0.20;;;;;;;;;;5056114;28;20078;-85
2024/01/04 14:41:39;;;;;;;1.45;0.30;;;;;;;;;;5031781;28;20034;-85
2024/01/04 14:44:05;;;;;;;0.88;0.30;;;;;;;;;;5038084;28;20036;-85
2024/01/04 14:46:30;;;;;;;1.40;0.47;;;;;;;;;;5053205;28;20395;-85
2024/01/04 14:48:56;;;;;;;2.03;0.40;;;;;;;;;;5050787;28;20041;-85